createdAt,value
2018-10-03T00:01:44.855Z,19.83
2018-10-03T00:04:12.983Z,16.20
2018-10-03T00:06:41.146Z,18.37
2018-10-03T00:09:09.920Z,15.53
2018-10-03T00:11:38.038Z,14.57
2018-10-03T00:14:06.675Z,21.13
2018-10-03T00:16:34.982Z,16.40
2018-10-03T00:19:03.129Z,14.20
2018-10-03T00:21:31.619Z,13.93
2018-10-03T00:23:59.779Z,19.63
2018-10-03T00:26:28.070Z,14.73
2018-10-03T00:28:56.212Z,15.57
2018-10-03T00:31:24.355Z,18.77
2018-10-03T00:33:52.458Z,15.53
2018-10-03T00:36:20.635Z,13.50
2018-10-03T00:38:48.770Z,15.63
2018-10-03T00:41:16.908Z,12.03
2018-10-03T00:43:45.017Z,14.40
2018-10-03T00:46:13.164Z,20.27
2018-10-03T00:48:41.310Z,18.33
2018-10-03T00:51:09.426Z,19.57
2018-10-03T00:53:37.594Z,15.53
2018-10-03T00:56:05.957Z,17.83
2018-10-03T00:58:34.148Z,18.77
2018-10-03T01:01:02.298Z,17.73
2018-10-03T01:03:30.435Z,19.97
2018-10-03T01:05:58.578Z,18.70
2018-10-03T01:08:26.721Z,21.23
2018-10-03T01:10:54.835Z,17.90
2018-10-03T01:13:22.960Z,24.63
2018-10-03T01:15:51.078Z,22.03
2018-10-03T01:18:19.238Z,17.67
2018-10-03T01:20:47.399Z,17.53
2018-10-03T01:23:15.518Z,21.03
2018-10-03T01:25:43.659Z,19.37
2018-10-03T01:28:11.798Z,21.23
2018-10-03T01:30:39.966Z,15.77
2018-10-03T01:33:08.114Z,22.63
2018-10-03T01:35:36.247Z,18.37
2018-10-03T01:38:04.406Z,17.43
2018-10-03T01:40:32.538Z,15.93
2018-10-03T01:43:00.657Z,22.60
2018-10-03T01:45:28.780Z,23.90
2018-10-03T01:47:56.921Z,23.33
2018-10-03T01:50:25.926Z,22.10
2018-10-03T01:52:54.056Z,23.43
2018-10-03T01:55:22.182Z,22.37
2018-10-03T01:57:50.316Z,19.27
2018-10-03T02:00:18.455Z,23.23
2018-10-03T02:02:46.582Z,21.27
2018-10-03T02:05:14.719Z,20.73
2018-10-03T02:07:42.862Z,19.90
2018-10-03T02:10:11.102Z,20.47
2018-10-03T02:12:39.263Z,22.27
2018-10-03T02:15:07.411Z,18.97
2018-10-03T02:17:35.547Z,17.70
2018-10-03T02:20:03.937Z,17.60
2018-10-03T02:22:32.087Z,21.93
2018-10-03T02:25:00.295Z,18.80
2018-10-03T02:27:28.427Z,19.53
2018-10-03T02:29:56.623Z,22.73
2018-10-03T02:32:24.765Z,26.03
2018-10-03T02:34:52.915Z,21.40
2018-10-03T02:37:21.083Z,28.10
2018-10-03T02:39:55.750Z,19.90
2018-10-03T02:42:23.922Z,21.77
2018-10-03T02:44:52.064Z,22.23
2018-10-03T02:47:20.222Z,25.17
2018-10-03T02:49:48.363Z,22.80
2018-10-03T02:52:16.566Z,24.30
2018-10-03T02:54:44.733Z,27.00
2018-10-03T02:57:12.891Z,21.37
2018-10-03T02:59:41.015Z,23.93
2018-10-03T03:02:09.490Z,19.97
2018-10-03T03:04:37.631Z,16.43
2018-10-03T03:07:05.780Z,14.80
2018-10-03T03:09:33.904Z,16.73
2018-10-03T03:12:02.047Z,17.30
2018-10-03T03:14:30.178Z,15.23
2018-10-03T03:16:58.380Z,19.57
2018-10-03T03:19:26.636Z,16.77
2018-10-03T03:21:54.782Z,13.23
2018-10-03T03:24:22.903Z,17.10
2018-10-03T03:26:51.022Z,19.30
2018-10-03T03:29:19.205Z,14.40
2018-10-03T03:31:47.330Z,14.53
2018-10-03T03:34:15.458Z,19.00
2018-10-03T03:36:43.599Z,15.50
2018-10-03T03:39:11.759Z,14.87
2018-10-03T03:41:39.965Z,12.90
2018-10-03T03:44:08.101Z,14.47
2018-10-03T03:46:36.279Z,24.17
2018-10-03T03:49:04.418Z,15.83
2018-10-03T03:51:32.570Z,18.67
2018-10-03T03:54:00.690Z,17.33
2018-10-03T03:56:28.846Z,22.67
2018-10-03T03:58:56.995Z,23.27
2018-10-03T04:01:25.123Z,21.43
2018-10-03T04:03:53.306Z,22.43
2018-10-03T04:06:21.467Z,20.50
2018-10-03T04:08:49.607Z,19.93
2018-10-03T04:11:17.747Z,26.13
2018-10-03T04:13:45.879Z,21.03
2018-10-03T04:16:14.122Z,21.73
2018-10-03T04:18:42.238Z,21.83
2018-10-03T04:21:10.403Z,21.27
2018-10-03T04:23:38.557Z,16.27
2018-10-03T04:26:06.686Z,26.33
2018-10-03T04:28:34.822Z,20.53
2018-10-03T04:31:02.938Z,16.50
2018-10-03T04:33:31.087Z,17.43
2018-10-03T04:35:59.242Z,16.43
2018-10-03T04:38:27.373Z,22.03
2018-10-03T04:40:55.534Z,21.00
2018-10-03T04:43:23.675Z,18.00
2018-10-03T04:45:51.836Z,19.07
2018-10-03T04:48:19.975Z,19.03
2018-10-03T04:50:48.134Z,15.13
2018-10-03T04:53:16.268Z,22.53
2018-10-03T04:55:44.399Z,21.40
2018-10-03T04:58:12.514Z,19.33
2018-10-03T05:00:40.695Z,20.67
2018-10-03T05:03:08.838Z,14.17
2018-10-03T05:05:36.995Z,18.03
2018-10-03T05:08:05.126Z,25.93
2018-10-03T05:10:33.286Z,18.83
2018-10-03T05:13:01.464Z,14.80
2018-10-03T05:15:29.686Z,15.87
2018-10-03T05:17:57.826Z,19.17
2018-10-03T05:20:25.959Z,12.20
2018-10-03T05:22:54.318Z,12.93
2018-10-03T05:25:22.463Z,14.57
2018-10-03T05:27:50.698Z,13.90
2018-10-03T05:30:18.750Z,10.93
2018-10-03T05:32:46.936Z,13.60
2018-10-03T05:35:15.087Z,15.63
2018-10-03T05:37:43.445Z,12.20
2018-10-03T05:40:11.814Z,14.93
2018-10-03T05:42:39.954Z,12.40
2018-10-03T05:45:08.122Z,17.00
2018-10-03T05:47:36.259Z,19.63
2018-10-03T05:50:04.446Z,14.83
2018-10-03T05:52:39.054Z,15.00
2018-10-03T05:55:07.200Z,14.43
2018-10-03T05:57:35.431Z,16.27
2018-10-03T06:00:03.718Z,22.07
2018-10-03T06:02:31.847Z,16.53
2018-10-03T06:05:00.011Z,15.60
2018-10-03T06:07:28.174Z,16.87
2018-10-03T06:09:56.320Z,17.67
2018-10-03T06:12:24.438Z,13.00
2018-10-03T06:14:52.566Z,15.10
2018-10-03T06:17:20.707Z,10.17
2018-10-03T06:19:48.868Z,24.23
2018-10-03T06:22:17.053Z,14.73
2018-10-03T06:24:45.191Z,15.90
2018-10-03T06:27:13.320Z,17.37
2018-10-03T06:29:41.460Z,16.23
2018-10-03T06:32:09.602Z,16.80
2018-10-03T06:34:37.750Z,15.73
2018-10-03T06:37:06.330Z,13.33
2018-10-03T06:39:34.515Z,13.63
2018-10-03T06:42:02.664Z,13.70
2018-10-03T06:44:30.779Z,22.33
2018-10-03T06:46:58.914Z,14.40
2018-10-03T06:49:27.100Z,15.93
2018-10-03T06:51:55.279Z,18.73
2018-10-03T06:54:23.465Z,13.00
2018-10-03T06:56:51.599Z,18.30
2018-10-03T06:59:19.736Z,12.93
2018-10-03T07:01:47.901Z,15.93
2018-10-03T07:04:16.080Z,16.97
2018-10-03T07:06:44.213Z,16.47
2018-10-03T07:09:12.354Z,11.03
2018-10-03T07:11:40.490Z,11.67
2018-10-03T07:14:08.674Z,13.67
2018-10-03T07:16:36.815Z,17.60
2018-10-03T07:19:04.939Z,18.57
2018-10-03T07:21:33.082Z,16.80
2018-10-03T07:24:01.231Z,17.07
2018-10-03T07:26:29.462Z,15.57
2018-10-03T07:28:57.615Z,15.57
2018-10-03T07:31:25.767Z,16.00
2018-10-03T07:33:53.948Z,17.20
2018-10-03T07:36:22.102Z,12.50
2018-10-03T07:38:50.223Z,12.73
2018-10-03T07:41:18.422Z,18.03
2018-10-03T07:43:46.626Z,14.87
2018-10-03T07:46:14.777Z,22.67
2018-10-03T07:48:42.909Z,17.67
2018-10-03T07:51:11.058Z,16.67
2018-10-03T07:53:39.312Z,13.50
2018-10-03T07:56:07.414Z,14.27
2018-10-03T07:58:35.547Z,20.13
2018-10-03T08:01:03.709Z,14.53
2018-10-03T08:03:31.855Z,13.10
2018-10-03T08:06:00.023Z,18.17
2018-10-03T08:08:28.158Z,14.63
2018-10-03T08:10:56.290Z,17.87
2018-10-03T08:13:24.439Z,15.40
2018-10-03T08:15:52.579Z,16.30
2018-10-03T08:18:20.745Z,13.60
2018-10-03T08:20:49.011Z,16.23
2018-10-03T08:23:17.236Z,15.37
2018-10-03T08:25:45.375Z,6.70
2018-10-03T08:28:14.642Z,14.80
2018-10-03T08:30:43.911Z,12.80
2018-10-03T08:33:12.071Z,16.43
2018-10-03T08:35:40.201Z,17.70
2018-10-03T08:38:08.439Z,13.90
2018-10-03T08:40:36.656Z,13.07
2018-10-03T08:43:04.818Z,14.43
2018-10-03T08:45:32.988Z,13.77
2018-10-03T08:48:01.147Z,12.60
2018-10-03T08:50:29.411Z,12.23
2018-10-03T08:52:57.563Z,12.63
2018-10-03T08:55:25.697Z,16.67
2018-10-03T08:57:53.885Z,15.60
2018-10-03T09:00:22.318Z,12.43
2018-10-03T09:02:50.470Z,8.80
2018-10-03T09:05:18.607Z,9.20
2018-10-03T09:07:46.791Z,8.97
2018-10-03T09:10:15.039Z,12.83
2018-10-03T09:12:43.199Z,12.57
2018-10-03T09:15:11.351Z,10.53
2018-10-03T09:17:39.531Z,11.70
2018-10-03T09:20:07.868Z,9.77
2018-10-03T09:22:36.069Z,10.53
2018-10-03T09:25:04.266Z,14.37
2018-10-03T09:27:32.532Z,9.93
2018-10-03T09:30:00.671Z,12.03
2018-10-03T09:32:28.836Z,11.33
2018-10-03T09:34:56.983Z,11.77
2018-10-03T09:37:25.115Z,18.90
2018-10-03T09:39:53.276Z,11.10
2018-10-03T09:42:21.414Z,8.63
2018-10-03T09:44:49.555Z,7.87
2018-10-03T09:47:17.717Z,8.67
2018-10-03T09:49:45.870Z,12.47
2018-10-03T09:52:14.016Z,9.67
2018-10-03T09:54:42.175Z,12.57
2018-10-03T09:57:10.342Z,11.37
2018-10-03T09:59:38.554Z,11.53
2018-10-03T10:02:06.736Z,13.43
2018-10-03T10:04:34.984Z,8.90
2018-10-03T10:07:03.286Z,7.17
2018-10-03T10:09:31.447Z,12.63
2018-10-03T10:11:59.613Z,8.10
2018-10-03T10:14:27.793Z,10.17
2018-10-03T10:16:55.954Z,13.67
2018-10-03T10:19:24.093Z,10.43
2018-10-03T10:21:52.297Z,11.47
2018-10-03T10:24:20.482Z,10.27
2018-10-03T10:26:48.645Z,11.10
2018-10-03T10:29:16.806Z,9.17
2018-10-03T10:31:44.995Z,13.87
2018-10-03T10:34:13.167Z,12.93
2018-10-03T10:36:41.356Z,14.30
2018-10-03T10:39:10.719Z,10.47
2018-10-03T10:41:38.939Z,13.40
2018-10-03T10:44:07.070Z,11.40
2018-10-03T10:46:35.529Z,13.93
2018-10-03T10:49:03.790Z,13.23
2018-10-03T10:51:32.060Z,16.57
2018-10-03T10:54:00.226Z,9.20
2018-10-03T10:56:28.405Z,13.13
2018-10-03T10:58:56.566Z,11.00
2018-10-03T11:01:24.722Z,11.43
2018-10-03T11:03:53.014Z,11.33
2018-10-03T11:06:21.319Z,8.40
2018-10-03T11:08:49.648Z,12.43
2018-10-03T11:11:17.799Z,12.87
2018-10-03T11:13:45.947Z,9.63
2018-10-03T11:16:14.171Z,11.10
2018-10-03T11:18:42.295Z,12.53
2018-10-03T11:21:10.459Z,7.97
2018-10-03T11:23:38.746Z,13.87
2018-10-03T11:26:06.791Z,10.37
2018-10-03T11:28:35.039Z,7.97
2018-10-03T11:31:03.215Z,12.80
2018-10-03T11:33:31.378Z,13.97
2018-10-03T11:35:59.539Z,12.13
2018-10-03T11:38:27.719Z,11.77
2018-10-03T11:40:55.983Z,10.80
2018-10-03T11:43:24.143Z,27.90
2018-10-03T11:45:52.298Z,13.53
2018-10-03T11:48:20.462Z,8.27
2018-10-03T11:50:48.788Z,9.00
2018-10-03T11:53:16.871Z,9.67
2018-10-03T11:55:45.011Z,23.23
2018-10-03T11:58:13.163Z,9.30
2018-10-03T12:00:41.298Z,19.23
2018-10-03T12:03:09.510Z,7.07
2018-10-03T12:05:37.617Z,7.03
2018-10-03T12:08:05.764Z,11.77
2018-10-03T12:10:33.958Z,14.93
2018-10-03T12:13:02.108Z,7.57
2018-10-03T12:15:30.310Z,7.23
2018-10-03T12:17:58.492Z,9.77
2018-10-03T12:20:26.674Z,9.23
2018-10-03T12:22:54.931Z,7.83
2018-10-03T12:25:23.083Z,8.83
2018-10-03T12:27:51.243Z,8.43
2018-10-03T12:30:19.405Z,10.87
2018-10-03T12:32:47.583Z,8.87
2018-10-03T12:35:20.066Z,9.17
2018-10-03T12:37:48.210Z,6.93
2018-10-03T12:40:16.347Z,8.87
2018-10-03T12:42:44.521Z,8.13
2018-10-03T12:45:12.761Z,8.63
2018-10-03T12:47:40.869Z,6.43
2018-10-03T12:50:09.041Z,9.03
2018-10-03T12:52:37.195Z,9.80
2018-10-03T12:55:05.750Z,10.37
2018-10-03T12:57:33.910Z,12.27
2018-10-03T13:00:02.102Z,11.80
2018-10-03T13:02:30.366Z,7.80
2018-10-03T13:04:58.487Z,11.13
2018-10-03T13:07:26.660Z,12.50
2018-10-03T13:09:54.827Z,7.50
2018-10-03T13:12:23.023Z,8.23
2018-10-03T13:14:51.247Z,8.53
2018-10-03T13:17:19.467Z,7.47
2018-10-03T13:19:47.638Z,9.03
2018-10-03T13:22:15.892Z,7.60
2018-10-03T13:24:44.088Z,9.20
2018-10-03T13:27:12.222Z,10.93
2018-10-03T13:29:40.421Z,7.90
2018-10-03T13:32:08.609Z,5.53
2018-10-03T13:34:36.770Z,10.57
2018-10-03T13:37:05.013Z,7.97
2018-10-03T13:39:33.168Z,6.90
2018-10-03T13:42:01.311Z,9.70
2018-10-03T13:44:29.439Z,7.37
2018-10-03T13:46:57.615Z,8.27
2018-10-03T13:49:25.834Z,6.83
2018-10-03T13:51:53.974Z,8.63
2018-10-03T13:54:22.141Z,9.67
2018-10-03T13:56:50.300Z,7.73
2018-10-03T13:59:18.467Z,9.60
2018-10-03T14:01:46.649Z,7.60
2018-10-03T14:04:14.859Z,6.90
2018-10-03T14:06:43.014Z,8.27
2018-10-03T14:09:11.666Z,9.73
2018-10-03T14:11:39.931Z,6.50
2018-10-03T14:14:08.087Z,10.33
2018-10-03T14:16:36.230Z,8.73
2018-10-03T14:19:04.355Z,7.47
2018-10-03T14:21:32.521Z,8.13
2018-10-03T14:24:00.675Z,14.67
2018-10-03T14:26:28.814Z,9.03
2018-10-03T14:28:56.950Z,9.43
2018-10-03T14:31:25.096Z,10.53
2018-10-03T14:33:53.343Z,13.93
2018-10-03T14:36:21.561Z,12.17
2018-10-03T14:38:49.719Z,9.37
2018-10-03T14:41:17.875Z,8.00
2018-10-03T14:43:46.009Z,8.73
2018-10-03T14:46:14.158Z,10.97
2018-10-03T14:48:42.282Z,9.90
2018-10-03T14:51:10.462Z,9.30
2018-10-03T14:53:38.624Z,11.73
2018-10-03T14:56:07.127Z,8.17
2018-10-03T14:58:35.361Z,10.87
2018-10-03T15:01:03.506Z,9.63
2018-10-03T15:03:31.642Z,11.73
2018-10-03T15:05:59.811Z,8.80
2018-10-03T15:08:27.964Z,7.60
2018-10-03T15:10:56.080Z,9.70
2018-10-03T15:13:24.323Z,8.07
2018-10-03T15:15:52.491Z,6.97
2018-10-03T15:18:20.686Z,7.20
2018-10-03T15:20:48.768Z,11.03
2018-10-03T15:23:17.035Z,7.47
2018-10-03T15:25:45.230Z,8.17
2018-10-03T15:28:13.434Z,6.60
2018-10-03T15:30:41.630Z,7.60
2018-10-03T15:33:09.819Z,8.10
2018-10-03T15:35:37.991Z,5.77
2018-10-03T15:38:06.127Z,8.17
2018-10-03T15:40:34.295Z,10.70
2018-10-03T15:43:02.478Z,7.60
2018-10-03T15:45:30.642Z,6.13
2018-10-03T15:47:58.836Z,10.90
2018-10-03T15:50:26.998Z,5.70
2018-10-03T15:52:55.127Z,7.33
2018-10-03T15:55:23.362Z,6.67
2018-10-03T15:57:51.516Z,6.77
2018-10-03T16:00:19.678Z,7.53
2018-10-03T16:02:47.837Z,6.40
2018-10-03T16:05:15.978Z,7.70
2018-10-03T16:07:44.151Z,9.87
2018-10-03T16:10:12.308Z,5.37
2018-10-03T16:12:40.471Z,7.63
2018-10-03T16:15:08.782Z,8.40
2018-10-03T16:17:36.968Z,8.97
2018-10-03T16:20:05.707Z,10.47
2018-10-03T16:22:33.874Z,4.47
2018-10-03T16:25:02.027Z,9.33
2018-10-03T16:27:30.180Z,7.87
2018-10-03T16:29:58.335Z,7.33
2018-10-03T16:32:26.552Z,5.90
2018-10-03T16:34:54.647Z,6.30
2018-10-03T16:37:22.814Z,6.53
2018-10-03T16:39:50.958Z,8.23
2018-10-03T16:42:19.095Z,9.07
2018-10-03T16:44:47.252Z,7.77
2018-10-03T16:47:15.411Z,12.83
2018-10-03T16:49:43.584Z,9.60
2018-10-03T16:52:11.723Z,7.50
2018-10-03T16:54:39.931Z,9.13
2018-10-03T16:57:08.078Z,8.03
2018-10-03T16:59:36.215Z,10.33
2018-10-03T17:02:04.470Z,7.60
2018-10-03T17:04:32.863Z,8.10
2018-10-03T17:07:01.034Z,7.83
2018-10-03T17:09:29.128Z,9.83
2018-10-03T17:11:57.263Z,7.20
2018-10-03T17:14:30.899Z,9.40
2018-10-03T17:16:59.091Z,8.10
2018-10-03T17:19:27.304Z,6.57
2018-10-03T17:21:55.954Z,8.20
2018-10-03T17:24:25.402Z,8.53
2018-10-03T17:26:53.545Z,9.07
2018-10-03T17:29:21.744Z,8.47
2018-10-03T17:31:49.891Z,6.10
2018-10-03T17:34:18.503Z,7.77
2018-10-03T17:36:47.776Z,6.87
2018-10-03T17:39:16.591Z,7.10
2018-10-03T17:41:45.191Z,8.43
2018-10-03T17:44:14.235Z,13.37
2018-10-03T17:46:42.367Z,9.93
2018-10-03T17:49:10.511Z,8.93
2018-10-03T17:51:38.675Z,10.93
2018-10-03T17:54:06.808Z,7.67
2018-10-03T17:56:35.072Z,9.07
2018-10-03T17:59:03.275Z,10.07
2018-10-03T18:01:32.839Z,8.93
2018-10-03T18:04:00.996Z,11.70
2018-10-03T18:06:29.139Z,10.33
2018-10-03T18:08:57.296Z,6.27
2018-10-03T18:11:25.439Z,8.13
2018-10-03T18:13:53.590Z,13.73
2018-10-03T18:16:21.734Z,7.60
2018-10-03T18:18:49.955Z,7.17
2018-10-03T18:21:18.199Z,8.83
2018-10-03T18:23:46.354Z,8.70
2018-10-03T18:26:14.551Z,11.47
2018-10-03T18:28:42.685Z,12.27
2018-10-03T18:31:10.859Z,8.67
2018-10-03T18:33:39.019Z,8.37
2018-10-03T18:36:07.280Z,12.67
2018-10-03T18:38:35.491Z,11.17
2018-10-03T18:41:03.650Z,13.10
2018-10-03T18:43:31.767Z,8.67
2018-10-03T18:45:59.904Z,10.57
2018-10-03T18:48:28.057Z,12.07
2018-10-03T18:50:56.207Z,11.23
2018-10-03T18:53:24.361Z,8.97
2018-10-03T18:55:52.487Z,12.23
2018-10-03T18:58:20.646Z,11.10
2018-10-03T19:00:48.819Z,13.67
2018-10-03T19:03:16.977Z,10.40
2018-10-03T19:05:45.164Z,12.00
2018-10-03T19:08:13.258Z,12.53
2018-10-03T19:10:41.406Z,11.00
2018-10-03T19:13:09.588Z,12.60
2018-10-03T19:15:37.764Z,14.70
2018-10-03T19:18:05.980Z,10.17
2018-10-03T19:20:34.411Z,9.97
2018-10-03T19:23:02.647Z,14.30
2018-10-03T19:25:30.815Z,10.27
2018-10-03T19:27:58.999Z,10.80
2018-10-03T19:30:27.137Z,9.97
2018-10-03T19:32:55.280Z,9.30
2018-10-03T19:35:23.427Z,7.43
2018-10-03T19:37:51.587Z,9.60
2018-10-03T19:40:19.745Z,11.40
2018-10-03T19:42:47.871Z,8.63
2018-10-03T19:45:16.031Z,9.67
2018-10-03T19:47:44.227Z,10.90
2018-10-03T19:50:12.398Z,10.77
2018-10-03T19:52:40.663Z,9.77
2018-10-03T19:55:08.819Z,9.20
2018-10-03T19:57:36.980Z,9.77
2018-10-03T20:00:05.216Z,11.10
2018-10-03T20:02:33.358Z,8.63
2018-10-03T20:05:01.492Z,12.70
2018-10-03T20:07:29.654Z,7.17
2018-10-03T20:09:57.784Z,4.50
2018-10-03T20:12:26.163Z,8.17
2018-10-03T20:14:54.303Z,6.70
2018-10-03T20:17:22.434Z,6.30
2018-10-03T20:19:50.592Z,6.77
2018-10-03T20:22:18.740Z,7.20
2018-10-03T20:24:46.876Z,6.70
2018-10-03T20:27:15.085Z,8.10
2018-10-03T20:29:43.184Z,7.63
2018-10-03T20:32:11.322Z,6.40
2018-10-03T20:34:39.487Z,5.27
2018-10-03T20:37:07.658Z,8.17
2018-10-03T20:39:35.840Z,8.43
2018-10-03T20:42:04.003Z,7.37
2018-10-03T20:44:32.143Z,6.80
2018-10-03T20:47:00.315Z,8.10
2018-10-03T20:49:28.482Z,8.67
2018-10-03T20:51:56.611Z,7.57
2018-10-03T20:54:24.798Z,7.30
2018-10-03T20:56:52.937Z,10.77
2018-10-03T20:59:21.102Z,3.87
2018-10-03T21:01:49.258Z,9.33
2018-10-03T21:04:17.418Z,10.37
2018-10-03T21:06:45.574Z,8.20
2018-10-03T21:09:13.708Z,5.90
2018-10-03T21:11:41.858Z,10.97
2018-10-03T21:14:10.009Z,9.23
2018-10-03T21:16:38.150Z,11.70
2018-10-03T21:19:06.639Z,13.53
2018-10-03T21:21:34.815Z,8.30
2018-10-03T21:24:02.974Z,6.60
2018-10-03T21:26:31.151Z,4.47
2018-10-03T21:28:59.342Z,9.17
2018-10-03T21:31:27.483Z,7.83
2018-10-03T21:33:55.644Z,9.80
2018-10-03T21:36:23.792Z,11.83
2018-10-03T21:38:51.926Z,8.37
2018-10-03T21:41:20.070Z,7.20
2018-10-03T21:43:48.327Z,5.63
2018-10-03T21:46:16.511Z,3.33
2018-10-03T21:48:44.639Z,11.13
2018-10-03T21:51:12.786Z,9.87
2018-10-03T21:53:40.941Z,12.57
2018-10-03T21:56:09.071Z,6.93
2018-10-03T21:58:37.210Z,8.70
2018-10-03T22:01:05.367Z,8.70
2018-10-03T22:03:33.527Z,8.13
2018-10-03T22:06:01.674Z,11.20
2018-10-03T22:08:29.825Z,9.23
2018-10-03T22:10:57.969Z,11.03
2018-10-03T22:13:26.127Z,10.23
2018-10-03T22:15:54.254Z,12.43
2018-10-03T22:18:22.418Z,9.50
2018-10-03T22:20:50.559Z,9.07
2018-10-03T22:23:18.711Z,13.13
2018-10-03T22:25:46.858Z,12.10
2018-10-03T22:28:15.038Z,13.20
2018-10-03T22:30:43.186Z,11.67
2018-10-03T22:33:11.334Z,14.17
2018-10-03T22:35:39.479Z,13.80
2018-10-03T22:38:07.640Z,13.33
2018-10-03T22:40:35.798Z,12.30
2018-10-03T22:43:03.943Z,14.47
2018-10-03T22:45:32.087Z,10.97
2018-10-03T22:48:00.236Z,13.27
2018-10-03T22:50:28.406Z,16.60
2018-10-03T22:52:56.543Z,13.50
2018-10-03T22:55:24.704Z,12.93
2018-10-03T22:57:52.847Z,14.53
2018-10-03T23:00:21.051Z,17.07
2018-10-03T23:02:49.206Z,14.87
2018-10-03T23:05:17.339Z,9.17
2018-10-03T23:07:45.486Z,15.47
2018-10-03T23:10:13.647Z,17.60
2018-10-03T23:12:41.823Z,13.17
2018-10-03T23:15:09.972Z,17.57
2018-10-03T23:17:38.110Z,15.50
2018-10-03T23:20:06.298Z,12.00
2018-10-03T23:22:34.426Z,16.10
2018-10-03T23:25:02.583Z,20.80
2018-10-03T23:27:30.719Z,16.07
2018-10-03T23:29:58.854Z,12.40
2018-10-03T23:32:26.987Z,15.47
2018-10-03T23:34:55.147Z,12.83
2018-10-03T23:37:23.275Z,10.63
2018-10-03T23:39:51.425Z,15.33
2018-10-03T23:42:19.556Z,12.03
2018-10-03T23:44:47.710Z,11.07
2018-10-03T23:47:15.839Z,10.73
2018-10-03T23:49:44.011Z,10.27
2018-10-03T23:52:12.185Z,11.50
2018-10-03T23:54:40.302Z,14.67
2018-10-03T23:57:08.444Z,14.13
2018-10-03T23:59:36.560Z,13.37
